sensor_id;sensor_type;location;lat;lon;timestamp;P1;durP1;ratioP1;P2;durP2;ratioP2
63110;SDS011;49201;53.426;10.300;2022-10-31T00:02:22;24.77;;;13.50;;
63110;SDS011;49201;53.426;10.300;2022-10-31T00:04:48;18.30;;;13.23;;
63110;SDS011;49201;53.426;10.300;2022-10-31T00:07:13;17.93;;;12.90;;
63110;SDS011;49201;53.426;10.300;2022-10-31T00:09:39;14.47;;;12.17;;
63110;SDS011;49201;53.426;10.300;2022-10-31T00:12:04;17.27;;;11.93;;
63110;SDS011;49201;53.426;10.300;2022-10-31T00:14:30;17.63;;;12.50;;
63110;SDS011;49201;53.426;10.300;2022-10-31T00:16:55;20.13;;;12.57;;
63110;SDS011;49201;53.426;10.300;2022-10-31T00:19:21;23.43;;;12.80;;
63110;SDS011;49201;53.426;10.300;2022-10-31T00:21:46;19.97;;;12.13;;
63110;SDS011;49201;53.426;10.300;2022-10-31T00:24:11;28.17;;;12.90;;
63110;SDS011;49201;53.426;10.300;2022-10-31T00:26:37;19.23;;;11.60;;
63110;SDS011;49201;53.426;10.300;2022-10-31T00:29:02;24.70;;;12.27;;
63110;SDS011;49201;53.426;10.300;2022-10-31T00:31:28;18.37;;;12.60;;
63110;SDS011;49201;53.426;10.300;2022-10-31T00:33:54;23.40;;;11.90;;
63110;SDS011;49201;53.426;10.300;2022-10-31T00:36:20;18.20;;;12.50;;
63110;SDS011;49201;53.426;10.300;2022-10-31T00:38:46;23.53;;;13.40;;
63110;SDS011;49201;53.426;10.300;2022-10-31T00:41:13;19.03;;;13.00;;
63110;SDS011;49201;53.426;10.300;2022-10-31T00:43:40;18.07;;;12.70;;
63110;SDS011;49201;53.426;10.300;2022-10-31T00:46:07;20.90;;;12.03;;
63110;SDS011;49201;53.426;10.300;2022-10-31T00:48:33;21.33;;;13.07;;
63110;SDS011;49201;53.426;10.300;2022-10-31T00:50:58;17.10;;;12.20;;
63110;SDS011;49201;53.426;10.300;2022-10-31T00:53:24;16.53;;;11.77;;
63110;SDS011;49201;53.426;10.300;2022-10-31T00:55:51;14.63;;;11.10;;
63110;SDS011;49201;53.426;10.300;2022-10-31T00:58:16;11.70;;;10.60;;
63110;SDS011;49201;53.426;10.300;2022-10-31T01:00:42;12.07;;;10.40;;
63110;SDS011;49201;53.426;10.300;2022-10-31T01:03:08;13.03;;;10.10;;
63110;SDS011;49201;53.426;10.300;2022-10-31T01:05:37;11.03;;;9.77;;
63110;SDS011;49201;53.426;10.300;2022-10-31T01:08:02;10.80;;;9.63;;
63110;SDS011;49201;53.426;10.300;2022-10-31T01:10:28;10.13;;;9.17;;
63110;SDS011;49201;53.426;10.300;2022-10-31T01:12:53;13.53;;;10.57;;
63110;SDS011;49201;53.426;10.300;2022-10-31T01:15:21;10.97;;;9.97;;
63110;SDS011;49201;53.426;10.300;2022-10-31T01:17:47;10.23;;;9.23;;
63110;SDS011;49201;53.426;10.300;2022-10-31T01:20:14;13.37;;;11.07;;
63110;SDS011;49201;53.426;10.300;2022-10-31T01:22:40;19.83;;;12.33;;
63110;SDS011;49201;53.426;10.300;2022-10-31T01:25:06;13.90;;;11.00;;
63110;SDS011;49201;53.426;10.300;2022-10-31T01:27:33;12.10;;;10.90;;
63110;SDS011;49201;53.426;10.300;2022-10-31T01:29:58;12.47;;;11.27;;
63110;SDS011;49201;53.426;10.300;2022-10-31T01:32:24;13.43;;;12.03;;
63110;SDS011;49201;53.426;10.300;2022-10-31T01:34:49;16.23;;;12.37;;
63110;SDS011;49201;53.426;10.300;2022-10-31T01:37:15;14.63;;;12.90;;
63110;SDS011;49201;53.426;10.300;2022-10-31T01:39:41;13.60;;;12.20;;
63110;SDS011;49201;53.426;10.300;2022-10-31T01:42:06;13.10;;;11.87;;
63110;SDS011;49201;53.426;10.300;2022-10-31T01:47:08;16.10;;;11.93;;
63110;SDS011;49201;53.426;10.300;2022-10-31T01:49:48;12.33;;;11.13;;
63110;SDS011;49201;53.426;10.300;2022-10-31T01:54:54;11.77;;;10.43;;
63110;SDS011;49201;53.426;10.300;2022-10-31T01:57:24;13.90;;;9.93;;
63110;SDS011;49201;53.426;10.300;2022-10-31T01:59:52;10.63;;;9.63;;
63110;SDS011;49201;53.426;10.300;2022-10-31T02:02:22;11.87;;;10.00;;
63110;SDS011;49201;53.426;10.300;2022-10-31T02:04:48;10.70;;;9.70;;
63110;SDS011;49201;53.426;10.300;2022-10-31T02:07:18;11.73;;;9.77;;
63110;SDS011;49201;53.426;10.300;2022-10-31T02:09:50;10.17;;;9.13;;
63110;SDS011;49201;53.426;10.300;2022-10-31T02:12:18;10.67;;;9.00;;
63110;SDS011;49201;53.426;10.300;2022-10-31T02:14:44;9.20;;;8.27;;
63110;SDS011;49201;53.426;10.300;2022-10-31T02:17:09;12.80;;;8.83;;
63110;SDS011;49201;53.426;10.300;2022-10-31T02:24:44;10.20;;;9.07;;
63110;SDS011;49201;53.426;10.300;2022-10-31T02:35:57;8.87;;;7.97;;
63110;SDS011;49201;53.426;10.300;2022-10-31T02:38:42;9.07;;;8.13;;
63110;SDS011;49201;53.426;10.300;2022-10-31T02:44:12;8.57;;;7.33;;
63110;SDS011;49201;53.426;10.300;2022-10-31T02:46:48;7.67;;;6.63;;
63110;SDS011;49201;53.426;10.300;2022-10-31T02:51:52;8.40;;;7.60;;
63110;SDS011;49201;53.426;10.300;2022-10-31T02:54:22;7.77;;;7.17;;
63110;SDS011;49201;53.426;10.300;2022-10-31T02:56:53;7.67;;;6.97;;
63110;SDS011;49201;53.426;10.300;2022-10-31T02:59:22;7.67;;;6.77;;
63110;SDS011;49201;53.426;10.300;2022-10-31T03:10:31;7.37;;;6.60;;
63110;SDS011;49201;53.426;10.300;2022-10-31T03:13:24;8.23;;;7.43;;
63110;SDS011;49201;53.426;10.300;2022-10-31T03:16:28;10.30;;;8.07;;
63110;SDS011;49201;53.426;10.300;2022-10-31T03:19:13;9.00;;;8.10;;
63110;SDS011;49201;53.426;10.300;2022-10-31T03:21:46;8.23;;;7.43;;
63110;SDS011;49201;53.426;10.300;2022-10-31T03:24:15;9.57;;;8.17;;
63110;SDS011;49201;53.426;10.300;2022-10-31T03:26:43;8.23;;;7.53;;
63110;SDS011;49201;53.426;10.300;2022-10-31T03:29:13;8.50;;;7.60;;
63110;SDS011;49201;53.426;10.300;2022-10-31T03:31:49;7.97;;;7.13;;
63110;SDS011;49201;53.426;10.300;2022-10-31T03:34:28;10.27;;;7.73;;
63110;SDS011;49201;53.426;10.300;2022-10-31T03:36:58;9.43;;;8.53;;
63110;SDS011;49201;53.426;10.300;2022-10-31T03:39:27;9.40;;;7.53;;
63110;SDS011;49201;53.426;10.300;2022-10-31T03:42:05;9.63;;;8.67;;
63110;SDS011;49201;53.426;10.300;2022-10-31T03:44:35;8.73;;;7.93;;
63110;SDS011;49201;53.426;10.300;2022-10-31T03:47:03;10.53;;;7.50;;
63110;SDS011;49201;53.426;10.300;2022-10-31T03:49:29;10.93;;;7.57;;
63110;SDS011;49201;53.426;10.300;2022-10-31T03:51:58;8.93;;;8.03;;
63110;SDS011;49201;53.426;10.300;2022-10-31T03:54:34;11.43;;;7.77;;
63110;SDS011;49201;53.426;10.300;2022-10-31T03:57:17;9.60;;;7.90;;
63110;SDS011;49201;53.426;10.300;2022-10-31T03:59:57;8.83;;;7.93;;
63110;SDS011;49201;53.426;10.300;2022-10-31T04:02:29;8.90;;;7.90;;
63110;SDS011;49201;53.426;10.300;2022-10-31T04:04:57;13.03;;;8.80;;
63110;SDS011;49201;53.426;10.300;2022-10-31T04:07:24;12.87;;;8.20;;
63110;SDS011;49201;53.426;10.300;2022-10-31T04:09:53;8.17;;;7.37;;
63110;SDS011;49201;53.426;10.300;2022-10-31T04:12:20;12.73;;;7.93;;
63110;SDS011;49201;53.426;10.300;2022-10-31T04:15:18;16.50;;;12.03;;
63110;SDS011;49201;53.426;10.300;2022-10-31T04:17:45;13.40;;;10.37;;
63110;SDS011;49201;53.426;10.300;2022-10-31T04:20:16;11.03;;;8.60;;
63110;SDS011;49201;53.426;10.300;2022-10-31T04:22:42;9.87;;;7.73;;
63110;SDS011;49201;53.426;10.300;2022-10-31T04:25:08;11.67;;;9.17;;
63110;SDS011;49201;53.426;10.300;2022-10-31T04:27:36;11.43;;;9.17;;
63110;SDS011;49201;53.426;10.300;2022-10-31T04:30:01;10.40;;;8.40;;
63110;SDS011;49201;53.426;10.300;2022-10-31T04:32:29;13.23;;;8.97;;
63110;SDS011;49201;53.426;10.300;2022-10-31T04:34:55;14.97;;;9.80;;
63110;SDS011;49201;53.426;10.300;2022-10-31T04:37:20;10.47;;;9.27;;
63110;SDS011;49201;53.426;10.300;2022-10-31T04:39:47;12.57;;;10.37;;
63110;SDS011;49201;53.426;10.300;2022-10-31T04:42:47;14.27;;;10.00;;
63110;SDS011;49201;53.426;10.300;2022-10-31T04:45:13;13.80;;;9.53;;
63110;SDS011;49201;53.426;10.300;2022-10-31T04:47:40;19.77;;;11.30;;
63110;SDS011;49201;53.426;10.300;2022-10-31T04:50:06;17.80;;;10.40;;
63110;SDS011;49201;53.426;10.300;2022-10-31T04:52:40;17.50;;;10.50;;
63110;SDS011;49201;53.426;10.300;2022-10-31T04:55:08;24.20;;;12.50;;
63110;SDS011;49201;53.426;10.300;2022-10-31T04:57:53;23.57;;;12.07;;
63110;SDS011;49201;53.426;10.300;2022-10-31T05:00:19;25.97;;;12.53;;
63110;SDS011;49201;53.426;10.300;2022-10-31T05:02:49;23.90;;;13.20;;
63110;SDS011;49201;53.426;10.300;2022-10-31T05:05:17;30.50;;;14.40;;
63110;SDS011;49201;53.426;10.300;2022-10-31T05:07:45;25.90;;;14.23;;
63110;SDS011;49201;53.426;10.300;2022-10-31T05:10:13;32.03;;;15.03;;
63110;SDS011;49201;53.426;10.300;2022-10-31T05:15:32;30.23;;;16.07;;
63110;SDS011;49201;53.426;10.300;2022-10-31T05:18:10;42.27;;;17.53;;
63110;SDS011;49201;53.426;10.300;2022-10-31T05:20:58;44.47;;;17.40;;
63110;SDS011;49201;53.426;10.300;2022-10-31T05:23:33;42.90;;;17.17;;
63110;SDS011;49201;53.426;10.300;2022-10-31T05:25:58;41.67;;;18.80;;
63110;SDS011;49201;53.426;10.300;2022-10-31T05:28:24;37.97;;;18.67;;
63110;SDS011;49201;53.426;10.300;2022-10-31T05:30:49;44.73;;;19.03;;
63110;SDS011;49201;53.426;10.300;2022-10-31T05:33:15;48.17;;;19.83;;
63110;SDS011;49201;53.426;10.300;2022-10-31T05:35:59;48.77;;;21.40;;
63110;SDS011;49201;53.426;10.300;2022-10-31T05:38:32;62.67;;;24.80;;
63110;SDS011;49201;53.426;10.300;2022-10-31T05:41:05;67.13;;;26.43;;
63110;SDS011;49201;53.426;10.300;2022-10-31T05:43:32;76.33;;;28.73;;
63110;SDS011;49201;53.426;10.300;2022-10-31T05:45:58;72.50;;;30.20;;
63110;SDS011;49201;53.426;10.300;2022-10-31T05:48:49;73.60;;;29.93;;
63110;SDS011;49201;53.426;10.300;2022-10-31T05:51:27;77.33;;;31.77;;
63110;SDS011;49201;53.426;10.300;2022-10-31T05:53:52;78.67;;;31.37;;
63110;SDS011;49201;53.426;10.300;2022-10-31T05:56:20;70.27;;;30.87;;
63110;SDS011;49201;53.426;10.300;2022-10-31T05:58:46;77.43;;;32.40;;
63110;SDS011;49201;53.426;10.300;2022-10-31T06:01:12;70.27;;;28.50;;
63110;SDS011;49201;53.426;10.300;2022-10-31T06:03:37;77.83;;;31.40;;
63110;SDS011;49201;53.426;10.300;2022-10-31T06:06:06;75.60;;;32.00;;
63110;SDS011;49201;53.426;10.300;2022-10-31T06:08:35;68.17;;;31.83;;
63110;SDS011;49201;53.426;10.300;2022-10-31T06:11:05;75.07;;;32.63;;
63110;SDS011;49201;53.426;10.300;2022-10-31T06:13:48;72.87;;;34.97;;
63110;SDS011;49201;53.426;10.300;2022-10-31T06:16:22;72.17;;;35.80;;
63110;SDS011;49201;53.426;10.300;2022-10-31T06:18:49;69.10;;;34.67;;
63110;SDS011;49201;53.426;10.300;2022-10-31T06:21:14;76.07;;;35.03;;
63110;SDS011;49201;53.426;10.300;2022-10-31T06:23:39;70.07;;;34.30;;
63110;SDS011;49201;53.426;10.300;2022-10-31T06:26:23;67.47;;;35.63;;
63110;SDS011;49201;53.426;10.300;2022-10-31T06:28:49;72.83;;;38.33;;
63110;SDS011;49201;53.426;10.300;2022-10-31T06:31:38;83.73;;;39.23;;
63110;SDS011;49201;53.426;10.300;2022-10-31T06:34:04;87.37;;;42.70;;
63110;SDS011;49201;53.426;10.300;2022-10-31T06:36:29;86.07;;;41.63;;
63110;SDS011;49201;53.426;10.300;2022-10-31T06:38:54;84.93;;;39.93;;
63110;SDS011;49201;53.426;10.300;2022-10-31T06:41:22;100.60;;;40.80;;
63110;SDS011;49201;53.426;10.300;2022-10-31T06:43:49;97.53;;;39.27;;
63110;SDS011;49201;53.426;10.300;2022-10-31T06:46:31;107.77;;;41.03;;
63110;SDS011;49201;53.426;10.300;2022-10-31T06:49:06;102.67;;;42.47;;
63110;SDS011;49201;53.426;10.300;2022-10-31T06:51:38;98.60;;;40.90;;
63110;SDS011;49201;53.426;10.300;2022-10-31T06:54:03;114.73;;;44.17;;
63110;SDS011;49201;53.426;10.300;2022-10-31T06:56:29;116.43;;;43.97;;
63110;SDS011;49201;53.426;10.300;2022-10-31T06:58:56;119.20;;;46.73;;
63110;SDS011;49201;53.426;10.300;2022-10-31T07:01:48;121.60;;;47.53;;
63110;SDS011;49201;53.426;10.300;2022-10-31T07:04:13;124.50;;;49.27;;
63110;SDS011;49201;53.426;10.300;2022-10-31T07:06:38;120.00;;;50.53;;
63110;SDS011;49201;53.426;10.300;2022-10-31T07:09:04;126.47;;;51.40;;
63110;SDS011;49201;53.426;10.300;2022-10-31T07:11:30;112.33;;;51.33;;
63110;SDS011;49201;53.426;10.300;2022-10-31T07:13:56;109.47;;;52.23;;
63110;SDS011;49201;53.426;10.300;2022-10-31T07:16:22;114.33;;;53.20;;
63110;SDS011;49201;53.426;10.300;2022-10-31T07:18:48;103.50;;;49.67;;
63110;SDS011;49201;53.426;10.300;2022-10-31T07:21:13;108.07;;;49.83;;
63110;SDS011;49201;53.426;10.300;2022-10-31T07:23:39;106.80;;;51.83;;
63110;SDS011;49201;53.426;10.300;2022-10-31T07:26:33;103.97;;;49.10;;
63110;SDS011;49201;53.426;10.300;2022-10-31T07:29:00;104.13;;;49.87;;
63110;SDS011;49201;53.426;10.300;2022-10-31T07:31:27;101.47;;;49.57;;
63110;SDS011;49201;53.426;10.300;2022-10-31T07:33:56;104.13;;;47.50;;
63110;SDS011;49201;53.426;10.300;2022-10-31T07:36:27;98.93;;;48.43;;
63110;SDS011;49201;53.426;10.300;2022-10-31T07:38:57;96.60;;;46.70;;
63110;SDS011;49201;53.426;10.300;2022-10-31T07:41:24;97.33;;;47.23;;
63110;SDS011;49201;53.426;10.300;2022-10-31T07:43:50;96.37;;;47.50;;
63110;SDS011;49201;53.426;10.300;2022-10-31T07:46:15;90.80;;;46.43;;
63110;SDS011;49201;53.426;10.300;2022-10-31T07:48:59;105.57;;;47.43;;
63110;SDS011;49201;53.426;10.300;2022-10-31T07:51:43;97.40;;;46.57;;
63110;SDS011;49201;53.426;10.300;2022-10-31T07:54:27;104.50;;;47.70;;
63110;SDS011;49201;53.426;10.300;2022-10-31T07:56:52;106.57;;;48.03;;
63110;SDS011;49201;53.426;10.300;2022-10-31T07:59:18;103.40;;;47.83;;
63110;SDS011;49201;53.426;10.300;2022-10-31T08:01:43;92.00;;;45.23;;
63110;SDS011;49201;53.426;10.300;2022-10-31T08:04:31;95.73;;;44.70;;
63110;SDS011;49201;53.426;10.300;2022-10-31T08:07:15;95.70;;;44.53;;
63110;SDS011;49201;53.426;10.300;2022-10-31T08:09:47;90.63;;;42.43;;
63110;SDS011;49201;53.426;10.300;2022-10-31T08:12:18;87.93;;;41.87;;
63110;SDS011;49201;53.426;10.300;2022-10-31T08:14:44;89.83;;;41.83;;
63110;SDS011;49201;53.426;10.300;2022-10-31T08:17:10;84.03;;;41.33;;
63110;SDS011;49201;53.426;10.300;2022-10-31T08:19:45;84.87;;;40.93;;
63110;SDS011;49201;53.426;10.300;2022-10-31T08:22:13;85.27;;;39.90;;
63110;SDS011;49201;53.426;10.300;2022-10-31T08:24:38;79.20;;;39.83;;
63110;SDS011;49201;53.426;10.300;2022-10-31T08:27:04;80.40;;;38.90;;
63110;SDS011;49201;53.426;10.300;2022-10-31T08:29:31;77.80;;;39.40;;
63110;SDS011;49201;53.426;10.300;2022-10-31T08:31:57;81.63;;;39.67;;
63110;SDS011;49201;53.426;10.300;2022-10-31T08:34:41;75.67;;;38.97;;
63110;SDS011;49201;53.426;10.300;2022-10-31T08:37:26;73.83;;;37.27;;
63110;SDS011;49201;53.426;10.300;2022-10-31T08:39:53;70.17;;;35.00;;
63110;SDS011;49201;53.426;10.300;2022-10-31T08:42:20;68.37;;;34.63;;
63110;SDS011;49201;53.426;10.300;2022-10-31T08:44:46;65.37;;;34.67;;
63110;SDS011;49201;53.426;10.300;2022-10-31T08:47:12;68.27;;;34.37;;
63110;SDS011;49201;53.426;10.300;2022-10-31T08:49:37;68.23;;;34.07;;
63110;SDS011;49201;53.426;10.300;2022-10-31T08:52:03;66.23;;;34.07;;
63110;SDS011;49201;53.426;10.300;2022-10-31T08:54:33;64.33;;;34.87;;
63110;SDS011;49201;53.426;10.300;2022-10-31T08:57:17;57.40;;;31.10;;
63110;SDS011;49201;53.426;10.300;2022-10-31T08:59:44;59.30;;;30.40;;
63110;SDS011;49201;53.426;10.300;2022-10-31T09:02:23;62.47;;;29.20;;
63110;SDS011;49201;53.426;10.300;2022-10-31T09:04:52;54.57;;;24.93;;
63110;SDS011;49201;53.426;10.300;2022-10-31T09:07:17;54.40;;;25.87;;
63110;SDS011;49201;53.426;10.300;2022-10-31T09:09:43;54.40;;;26.30;;
63110;SDS011;49201;53.426;10.300;2022-10-31T09:12:08;63.90;;;29.80;;
63110;SDS011;49201;53.426;10.300;2022-10-31T09:15:06;58.33;;;27.20;;
63110;SDS011;49201;53.426;10.300;2022-10-31T09:17:37;56.57;;;26.20;;
63110;SDS011;49201;53.426;10.300;2022-10-31T09:20:27;52.20;;;25.37;;
63110;SDS011;49201;53.426;10.300;2022-10-31T09:22:58;57.97;;;25.20;;
63110;SDS011;49201;53.426;10.300;2022-10-31T09:25:25;54.17;;;25.33;;
63110;SDS011;49201;53.426;10.300;2022-10-31T09:28:11;48.63;;;25.43;;
63110;SDS011;49201;53.426;10.300;2022-10-31T09:30:38;49.93;;;25.37;;
63110;SDS011;49201;53.426;10.300;2022-10-31T09:33:05;49.20;;;24.47;;
63110;SDS011;49201;53.426;10.300;2022-10-31T09:35:33;55.20;;;24.27;;
63110;SDS011;49201;53.426;10.300;2022-10-31T09:38:00;48.67;;;25.37;;
63110;SDS011;49201;53.426;10.300;2022-10-31T09:49:05;42.20;;;23.20;;
63110;SDS011;49201;53.426;10.300;2022-10-31T09:51:52;45.07;;;25.63;;
63110;SDS011;49201;53.426;10.300;2022-10-31T09:57:13;47.80;;;26.47;;
63110;SDS011;49201;53.426;10.300;2022-10-31T09:59:44;46.37;;;25.33;;
63110;SDS011;49201;53.426;10.300;2022-10-31T10:02:19;46.13;;;24.30;;
63110;SDS011;49201;53.426;10.300;2022-10-31T10:04:56;38.90;;;23.83;;
63110;SDS011;49201;53.426;10.300;2022-10-31T10:22:20;36.13;;;20.80;;
63110;SDS011;49201;53.426;10.300;2022-10-31T10:27:57;38.60;;;21.43;;
63110;SDS011;49201;53.426;10.300;2022-10-31T10:30:41;38.70;;;23.00;;
63110;SDS011;49201;53.426;10.300;2022-10-31T10:33:11;36.27;;;22.03;;
63110;SDS011;49201;53.426;10.300;2022-10-31T10:35:44;39.10;;;24.00;;
63110;SDS011;49201;53.426;10.300;2022-10-31T10:40:58;35.53;;;22.00;;
63110;SDS011;49201;53.426;10.300;2022-10-31T10:43:33;37.77;;;22.43;;
63110;SDS011;49201;53.426;10.300;2022-10-31T10:51:43;35.23;;;21.90;;
63110;SDS011;49201;53.426;10.300;2022-10-31T10:59:37;38.77;;;22.83;;
63110;SDS011;49201;53.426;10.300;2022-10-31T11:02:03;32.77;;;21.83;;
63110;SDS011;49201;53.426;10.300;2022-10-31T11:04:34;35.60;;;21.93;;
63110;SDS011;49201;53.426;10.300;2022-10-31T11:07:08;34.10;;;21.97;;
63110;SDS011;49201;53.426;10.300;2022-10-31T11:09:35;34.57;;;21.70;;
63110;SDS011;49201;53.426;10.300;2022-10-31T11:12:08;30.67;;;20.47;;
63110;SDS011;49201;53.426;10.300;2022-10-31T11:15:22;34.90;;;21.00;;
63110;SDS011;49201;53.426;10.300;2022-10-31T11:17:33;30.03;;;20.10;;
63110;SDS011;49201;53.426;10.300;2022-10-31T11:22:30;32.23;;;20.43;;
63110;SDS011;49201;53.426;10.300;2022-10-31T11:24:55;30.47;;;19.77;;
63110;SDS011;49201;53.426;10.300;2022-10-31T11:27:22;30.97;;;20.33;;
63110;SDS011;49201;53.426;10.300;2022-10-31T11:29:49;32.07;;;19.47;;
63110;SDS011;49201;53.426;10.300;2022-10-31T11:32:21;27.93;;;17.77;;
63110;SDS011;49201;53.426;10.300;2022-10-31T11:34:59;32.23;;;19.67;;
63110;SDS011;49201;53.426;10.300;2022-10-31T11:37:28;27.67;;;18.40;;
63110;SDS011;49201;53.426;10.300;2022-10-31T11:40:02;27.93;;;18.40;;
63110;SDS011;49201;53.426;10.300;2022-10-31T11:42:35;28.07;;;17.83;;
63110;SDS011;49201;53.426;10.300;2022-10-31T11:45:16;30.70;;;19.07;;
63110;SDS011;49201;53.426;10.300;2022-10-31T11:47:53;28.30;;;17.77;;
63110;SDS011;49201;53.426;10.300;2022-10-31T11:50:40;29.27;;;19.47;;
63110;SDS011;49201;53.426;10.300;2022-10-31T11:53:15;23.20;;;17.17;;
63110;SDS011;49201;53.426;10.300;2022-10-31T11:55:44;25.23;;;17.13;;
63110;SDS011;49201;53.426;10.300;2022-10-31T11:58:23;26.87;;;17.77;;
63110;SDS011;49201;53.426;10.300;2022-10-31T12:00:51;29.83;;;18.90;;
63110;SDS011;49201;53.426;10.300;2022-10-31T12:08:37;25.63;;;16.37;;
63110;SDS011;49201;53.426;10.300;2022-10-31T12:16:36;23.40;;;16.63;;
63110;SDS011;49201;53.426;10.300;2022-10-31T12:19:49;26.10;;;15.93;;
63110;SDS011;49201;53.426;10.300;2022-10-31T12:28:03;23.73;;;17.30;;
63110;SDS011;49201;53.426;10.300;2022-10-31T12:33:21;28.37;;;18.93;;
63110;SDS011;49201;53.426;10.300;2022-10-31T12:49:39;26.43;;;17.57;;
63110;SDS011;49201;53.426;10.300;2022-10-31T12:57:47;27.33;;;18.30;;
63110;SDS011;49201;53.426;10.300;2022-10-31T13:00:18;24.27;;;17.50;;
63110;SDS011;49201;53.426;10.300;2022-10-31T13:02:51;27.50;;;19.03;;
63110;SDS011;49201;53.426;10.300;2022-10-31T13:05:25;26.13;;;17.73;;
63110;SDS011;49201;53.426;10.300;2022-10-31T13:08:15;25.87;;;17.77;;
63110;SDS011;49201;53.426;10.300;2022-10-31T13:16:40;25.37;;;16.97;;
63110;SDS011;49201;53.426;10.300;2022-10-31T13:19:19;23.87;;;16.40;;
63110;SDS011;49201;53.426;10.300;2022-10-31T13:22:04;23.53;;;17.53;;
63110;SDS011;49201;53.426;10.300;2022-10-31T13:24:35;24.23;;;16.50;;
63110;SDS011;49201;53.426;10.300;2022-10-31T13:27:23;25.97;;;16.83;;
63110;SDS011;49201;53.426;10.300;2022-10-31T13:32:57;21.33;;;15.47;;
63110;SDS011;49201;53.426;10.300;2022-10-31T13:38:10;21.93;;;15.30;;
63110;SDS011;49201;53.426;10.300;2022-10-31T13:41:10;21.27;;;15.00;;
63110;SDS011;49201;53.426;10.300;2022-10-31T13:48:58;21.27;;;14.93;;
63110;SDS011;49201;53.426;10.300;2022-10-31T13:51:28;20.27;;;14.97;;
63110;SDS011;49201;53.426;10.300;2022-10-31T13:56:21;20.77;;;14.90;;
63110;SDS011;49201;53.426;10.300;2022-10-31T13:58:59;19.60;;;13.70;;
63110;SDS011;49201;53.426;10.300;2022-10-31T14:01:28;18.50;;;13.30;;
63110;SDS011;49201;53.426;10.300;2022-10-31T14:06:46;18.30;;;13.67;;
63110;SDS011;49201;53.426;10.300;2022-10-31T14:09:32;18.97;;;13.77;;
63110;SDS011;49201;53.426;10.300;2022-10-31T14:12:02;18.23;;;13.47;;
63110;SDS011;49201;53.426;10.300;2022-10-31T14:14:32;19.67;;;14.47;;
63110;SDS011;49201;53.426;10.300;2022-10-31T14:17:04;19.87;;;14.20;;
63110;SDS011;49201;53.426;10.300;2022-10-31T14:19:31;19.03;;;13.70;;
63110;SDS011;49201;53.426;10.300;2022-10-31T14:21:56;18.87;;;14.00;;
63110;SDS011;49201;53.426;10.300;2022-10-31T14:26:55;19.03;;;13.40;;
63110;SDS011;49201;53.426;10.300;2022-10-31T14:29:22;17.73;;;12.97;;
63110;SDS011;49201;53.426;10.300;2022-10-31T14:32:04;16.50;;;11.77;;
63110;SDS011;49201;53.426;10.300;2022-10-31T14:42:45;19.33;;;12.90;;
63110;SDS011;49201;53.426;10.300;2022-10-31T14:51:16;16.63;;;11.80;;
63110;SDS011;49201;53.426;10.300;2022-10-31T14:56:09;17.53;;;12.33;;
63110;SDS011;49201;53.426;10.300;2022-10-31T14:58:40;19.30;;;13.10;;
63110;SDS011;49201;53.426;10.300;2022-10-31T15:01:25;22.03;;;13.17;;
63110;SDS011;49201;53.426;10.300;2022-10-31T15:03:52;19.73;;;13.23;;
63110;SDS011;49201;53.426;10.300;2022-10-31T15:06:22;21.73;;;13.93;;
63110;SDS011;49201;53.426;10.300;2022-10-31T15:08:50;23.63;;;14.40;;
63110;SDS011;49201;53.426;10.300;2022-10-31T15:11:24;20.60;;;13.33;;
63110;SDS011;49201;53.426;10.300;2022-10-31T15:13:57;18.57;;;12.63;;
63110;SDS011;49201;53.426;10.300;2022-10-31T15:16:28;21.50;;;12.57;;
63110;SDS011;49201;53.426;10.300;2022-10-31T15:19:00;18.70;;;12.63;;
63110;SDS011;49201;53.426;10.300;2022-10-31T15:21:29;17.90;;;12.33;;
63110;SDS011;49201;53.426;10.300;2022-10-31T15:23:57;20.90;;;12.77;;
63110;SDS011;49201;53.426;10.300;2022-10-31T15:26:40;21.20;;;12.60;;
63110;SDS011;49201;53.426;10.300;2022-10-31T15:31:49;17.87;;;12.00;;
63110;SDS011;49201;53.426;10.300;2022-10-31T15:34:22;17.73;;;12.07;;
63110;SDS011;49201;53.426;10.300;2022-10-31T15:37:13;21.53;;;13.87;;
63110;SDS011;49201;53.426;10.300;2022-10-31T15:39:43;19.10;;;12.27;;
63110;SDS011;49201;53.426;10.300;2022-10-31T15:42:20;16.80;;;12.23;;
63110;SDS011;49201;53.426;10.300;2022-10-31T15:44:51;21.73;;;12.60;;
63110;SDS011;49201;53.426;10.300;2022-10-31T15:47:22;20.73;;;13.00;;
63110;SDS011;49201;53.426;10.300;2022-10-31T15:49:53;19.30;;;12.37;;
63110;SDS011;49201;53.426;10.300;2022-10-31T15:54:50;22.40;;;13.90;;
63110;SDS011;49201;53.426;10.300;2022-10-31T15:57:20;23.73;;;15.47;;
63110;SDS011;49201;53.426;10.300;2022-10-31T15:59:47;24.77;;;15.00;;
63110;SDS011;49201;53.426;10.300;2022-10-31T16:02:14;22.20;;;13.93;;
63110;SDS011;49201;53.426;10.300;2022-10-31T16:07:22;22.67;;;14.73;;
63110;SDS011;49201;53.426;10.300;2022-10-31T16:09:53;24.30;;;15.93;;
63110;SDS011;49201;53.426;10.300;2022-10-31T16:12:35;24.27;;;15.23;;
63110;SDS011;49201;53.426;10.300;2022-10-31T16:15:03;24.47;;;15.37;;
63110;SDS011;49201;53.426;10.300;2022-10-31T16:17:29;27.43;;;15.90;;
63110;SDS011;49201;53.426;10.300;2022-10-31T16:22:28;28.27;;;16.63;;
63110;SDS011;49201;53.426;10.300;2022-10-31T16:25:09;26.77;;;17.17;;
63110;SDS011;49201;53.426;10.300;2022-10-31T16:27:46;27.77;;;18.13;;
63110;SDS011;49201;53.426;10.300;2022-10-31T16:33:03;27.80;;;17.17;;
63110;SDS011;49201;53.426;10.300;2022-10-31T16:35:34;31.43;;;17.93;;
63110;SDS011;49201;53.426;10.300;2022-10-31T16:38:01;23.97;;;16.60;;
63110;SDS011;49201;53.426;10.300;2022-10-31T16:40:27;29.67;;;18.83;;
63110;SDS011;49201;53.426;10.300;2022-10-31T16:42:53;27.57;;;17.77;;
63110;SDS011;49201;53.426;10.300;2022-10-31T16:45:23;30.17;;;19.10;;
63110;SDS011;49201;53.426;10.300;2022-10-31T16:47:50;28.77;;;18.60;;
63110;SDS011;49201;53.426;10.300;2022-10-31T16:50:23;30.20;;;18.40;;
63110;SDS011;49201;53.426;10.300;2022-10-31T16:52:50;28.40;;;18.13;;
63110;SDS011;49201;53.426;10.300;2022-10-31T16:55:16;30.50;;;19.20;;
63110;SDS011;49201;53.426;10.300;2022-10-31T16:57:46;33.43;;;20.10;;
63110;SDS011;49201;53.426;10.300;2022-10-31T17:00:14;32.93;;;20.13;;
63110;SDS011;49201;53.426;10.300;2022-10-31T17:02:41;29.33;;;18.97;;
63110;SDS011;49201;53.426;10.300;2022-10-31T17:05:11;33.53;;;19.93;;
63110;SDS011;49201;53.426;10.300;2022-10-31T17:07:39;33.23;;;20.03;;
63110;SDS011;49201;53.426;10.300;2022-10-31T17:10:05;31.90;;;20.00;;
63110;SDS011;49201;53.426;10.300;2022-10-31T17:12:31;35.20;;;20.53;;
63110;SDS011;49201;53.426;10.300;2022-10-31T17:14:56;36.10;;;21.43;;
63110;SDS011;49201;53.426;10.300;2022-10-31T17:17:22;34.03;;;21.03;;
63110;SDS011;49201;53.426;10.300;2022-10-31T17:19:47;35.97;;;20.97;;
63110;SDS011;49201;53.426;10.300;2022-10-31T17:22:13;40.87;;;22.10;;
63110;SDS011;49201;53.426;10.300;2022-10-31T17:24:39;36.30;;;22.47;;
63110;SDS011;49201;53.426;10.300;2022-10-31T17:27:05;42.10;;;23.87;;
63110;SDS011;49201;53.426;10.300;2022-10-31T17:29:30;42.50;;;23.57;;